sensor_id;sensor_type;location;lat;lon;timestamp;pressure;altitude;pressure_sealevel;temperature;humidity
20350;BME280;10332;50.208;18.988;2023-04-07T00:02:12;97982.59;;;4.25;85.10
20350;BME280;10332;50.208;18.988;2023-04-07T00:04:40;97983.41;;;4.25;84.58
20350;BME280;10332;50.208;18.988;2023-04-07T00:07:08;97976.69;;;4.21;84.60
20350;BME280;10332;50.208;18.988;2023-04-07T00:09:36;97975.31;;;4.14;85.34
20350;BME280;10332;50.208;18.988;2023-04-07T00:12:03;97980.59;;;4.11;85.41
20350;BME280;10332;50.208;18.988;2023-04-07T00:14:31;97967.91;;;4.07;85.73
20350;BME280;10332;50.208;18.988;2023-04-07T00:16:58;97967.69;;;4.11;85.60
20350;BME280;10332;50.208;18.988;2023-04-07T00:19:26;97967.59;;;4.13;85.43
20350;BME280;10332;50.208;18.988;2023-04-07T00:21:53;97968.19;;;4.19;85.21
20350;BME280;10332;50.208;18.988;2023-04-07T00:24:21;97959.09;;;4.11;85.47
20350;BME280;10332;50.208;18.988;2023-04-07T00:27:00;97959.97;;;3.91;86.73
20350;BME280;10332;50.208;18.988;2023-04-07T00:29:27;97957.13;;;3.97;86.21
20350;BME280;10332;50.208;18.988;2023-04-07T00:31:55;97957.47;;;3.89;86.75
20350;BME280;10332;50.208;18.988;2023-04-07T00:34:22;97949.66;;;3.91;86.95
20350;BME280;10332;50.208;18.988;2023-04-07T00:36:49;97955.72;;;3.90;87.02
20350;BME280;10332;50.208;18.988;2023-04-07T00:39:19;97950.22;;;3.97;86.96
20350;BME280;10332;50.208;18.988;2023-04-07T00:41:48;97946.66;;;4.00;86.88
20350;BME280;10332;50.208;18.988;2023-04-07T00:44:15;97941.50;;;4.00;86.81
20350;BME280;10332;50.208;18.988;2023-04-07T00:46:43;97940.84;;;3.95;86.83
20350;BME280;10332;50.208;18.988;2023-04-07T00:49:11;97935.41;;;4.01;86.73
20350;BME280;10332;50.208;18.988;2023-04-07T00:51:39;97937.31;;;3.97;86.77
20350;BME280;10332;50.208;18.988;2023-04-07T00:54:09;97934.81;;;3.96;87.07
20350;BME280;10332;50.208;18.988;2023-04-07T00:56:36;97941.66;;;3.97;86.69
20350;BME280;10332;50.208;18.988;2023-04-07T00:59:04;97929.75;;;3.93;87.14
20350;BME280;10332;50.208;18.988;2023-04-07T01:05:30;97928.34;;;3.86;87.57
20350;BME280;10332;50.208;18.988;2023-04-07T01:08:19;97923.69;;;3.94;87.25
20350;BME280;10332;50.208;18.988;2023-04-07T01:13:51;97923.63;;;3.95;87.33
20350;BME280;10332;50.208;18.988;2023-04-07T01:16:48;97923.69;;;3.94;87.47
20350;BME280;10332;50.208;18.988;2023-04-07T01:21:57;97915.59;;;4.02;86.83
20350;BME280;10332;50.208;18.988;2023-04-07T01:24:50;97920.00;;;3.99;87.08
20350;BME280;10332;50.208;18.988;2023-04-07T01:30:27;97920.84;;;4.00;87.37
20350;BME280;10332;50.208;18.988;2023-04-07T01:32:58;97914.91;;;3.98;87.55
20350;BME280;10332;50.208;18.988;2023-04-07T01:35:33;97919.09;;;4.01;87.40
20350;BME280;10332;50.208;18.988;2023-04-07T01:38:03;97925.34;;;3.95;87.86
20350;BME280;10332;50.208;18.988;2023-04-07T01:40:34;97923.22;;;4.05;87.65
20350;BME280;10332;50.208;18.988;2023-04-07T01:43:02;97926.28;;;4.13;87.11
20350;BME280;10332;50.208;18.988;2023-04-07T01:45:33;97921.91;;;4.15;86.68
20350;BME280;10332;50.208;18.988;2023-04-07T01:48:05;97909.91;;;4.14;86.70
20350;BME280;10332;50.208;18.988;2023-04-07T01:50:33;97908.91;;;4.16;86.70
20350;BME280;10332;50.208;18.988;2023-04-07T01:53:03;97915.19;;;4.11;86.88
20350;BME280;10332;50.208;18.988;2023-04-07T01:55:31;97916.78;;;4.13;87.03
20350;BME280;10332;50.208;18.988;2023-04-07T01:58:06;97907.66;;;4.06;86.80
20350;BME280;10332;50.208;18.988;2023-04-07T02:00:33;97905.91;;;4.07;86.86
20350;BME280;10332;50.208;18.988;2023-04-07T02:03:12;97904.91;;;3.90;87.55
20350;BME280;10332;50.208;18.988;2023-04-07T02:05:51;97903.34;;;3.86;88.21
20350;BME280;10332;50.208;18.988;2023-04-07T02:08:23;97906.59;;;3.91;88.17
20350;BME280;10332;50.208;18.988;2023-04-07T02:10:55;97896.81;;;3.98;87.49
20350;BME280;10332;50.208;18.988;2023-04-07T02:13:25;97902.59;;;4.03;87.31
20350;BME280;10332;50.208;18.988;2023-04-07T02:15:54;97901.84;;;4.01;87.42
20350;BME280;10332;50.208;18.988;2023-04-07T02:18:25;97902.91;;;3.97;87.61
20350;BME280;10332;50.208;18.988;2023-04-07T02:20:55;97906.19;;;4.01;87.50
20350;BME280;10332;50.208;18.988;2023-04-07T02:23:23;97906.41;;;3.96;87.61
20350;BME280;10332;50.208;18.988;2023-04-07T02:25:55;97899.81;;;3.89;88.47
20350;BME280;10332;50.208;18.988;2023-04-07T02:28:23;97904.56;;;3.98;87.85
20350;BME280;10332;50.208;18.988;2023-04-07T02:33:37;97911.69;;;3.93;88.23
20350;BME280;10332;50.208;18.988;2023-04-07T02:36:04;97902.34;;;3.90;88.65
20350;BME280;10332;50.208;18.988;2023-04-07T02:38:32;97903.81;;;3.96;88.15
20350;BME280;10332;50.208;18.988;2023-04-07T02:40:59;97918.19;;;4.02;87.84
20350;BME280;10332;50.208;18.988;2023-04-07T02:43:27;97907.66;;;4.06;87.75
20350;BME280;10332;50.208;18.988;2023-04-07T02:45:54;97917.06;;;4.07;88.04
20350;BME280;10332;50.208;18.988;2023-04-07T02:48:22;97912.00;;;4.06;87.95
20350;BME280;10332;50.208;18.988;2023-04-07T02:50:50;97901.66;;;4.06;87.61
20350;BME280;10332;50.208;18.988;2023-04-07T02:53:17;97899.00;;;4.07;87.44
20350;BME280;10332;50.208;18.988;2023-04-07T02:55:45;97894.44;;;4.12;87.44
20350;BME280;10332;50.208;18.988;2023-04-07T02:58:12;97891.09;;;4.10;87.57
20350;BME280;10332;50.208;18.988;2023-04-07T03:00:40;97895.25;;;4.14;87.28
20350;BME280;10332;50.208;18.988;2023-04-07T03:03:07;97891.25;;;4.07;87.27
20350;BME280;10332;50.208;18.988;2023-04-07T03:05:35;97890.84;;;3.97;88.12
20350;BME280;10332;50.208;18.988;2023-04-07T03:08:03;97885.84;;;3.93;88.50
20350;BME280;10332;50.208;18.988;2023-04-07T03:10:30;97887.94;;;4.04;87.84
20350;BME280;10332;50.208;18.988;2023-04-07T03:12:57;97891.38;;;4.04;88.25
20350;BME280;10332;50.208;18.988;2023-04-07T03:15:25;97887.91;;;4.05;87.84
20350;BME280;10332;50.208;18.988;2023-04-07T03:17:52;97893.19;;;4.02;88.29
20350;BME280;10332;50.208;18.988;2023-04-07T03:20:20;97893.25;;;4.01;88.33
20350;BME280;10332;50.208;18.988;2023-04-07T03:22:47;97886.19;;;4.04;88.01
20350;BME280;10332;50.208;18.988;2023-04-07T03:25:15;97893.59;;;3.93;88.80
20350;BME280;10332;50.208;18.988;2023-04-07T03:27:43;97897.03;;;3.93;88.82
20350;BME280;10332;50.208;18.988;2023-04-07T03:30:10;97887.59;;;3.92;88.86
20350;BME280;10332;50.208;18.988;2023-04-07T03:32:38;97883.16;;;3.96;88.57
20350;BME280;10332;50.208;18.988;2023-04-07T03:35:06;97888.59;;;3.90;88.87
20350;BME280;10332;50.208;18.988;2023-04-07T03:37:34;97889.19;;;3.95;88.66
20350;BME280;10332;50.208;18.988;2023-04-07T03:40:01;97885.34;;;3.85;89.22
20350;BME280;10332;50.208;18.988;2023-04-07T03:42:29;97878.09;;;3.93;89.12
20350;BME280;10332;50.208;18.988;2023-04-07T03:44:56;97878.00;;;3.96;88.98
20350;BME280;10332;50.208;18.988;2023-04-07T03:47:24;97882.03;;;4.02;88.67
20350;BME280;10332;50.208;18.988;2023-04-07T03:49:51;97890.06;;;3.95;88.79
20350;BME280;10332;50.208;18.988;2023-04-07T03:52:19;97884.94;;;3.94;89.17
20350;BME280;10332;50.208;18.988;2023-04-07T03:54:46;97886.34;;;4.01;88.69
20350;BME280;10332;50.208;18.988;2023-04-07T03:57:14;97891.50;;;4.01;88.87
20350;BME280;10332;50.208;18.988;2023-04-07T03:59:41;97892.50;;;3.98;89.03
20350;BME280;10332;50.208;18.988;2023-04-07T04:02:09;97897.75;;;3.97;88.75
20350;BME280;10332;50.208;18.988;2023-04-07T04:04:37;97889.84;;;4.00;88.87
20350;BME280;10332;50.208;18.988;2023-04-07T04:07:04;97889.34;;;3.92;89.35
20350;BME280;10332;50.208;18.988;2023-04-07T04:09:32;97896.13;;;3.94;89.07
20350;BME280;10332;50.208;18.988;2023-04-07T04:11:59;97883.19;;;3.94;89.30
20350;BME280;10332;50.208;18.988;2023-04-07T04:14:27;97884.69;;;4.00;89.06
20350;BME280;10332;50.208;18.988;2023-04-07T04:16:54;97883.50;;;3.88;89.76
20350;BME280;10332;50.208;18.988;2023-04-07T04:19:22;97886.75;;;3.92;89.60
20350;BME280;10332;50.208;18.988;2023-04-07T04:21:49;97883.28;;;3.93;89.54
20350;BME280;10332;50.208;18.988;2023-04-07T04:24:16;97886.06;;;3.88;89.56
20350;BME280;10332;50.208;18.988;2023-04-07T04:26:44;97882.69;;;3.86;89.77
20350;BME280;10332;50.208;18.988;2023-04-07T04:29:11;97889.56;;;3.87;89.59
20350;BME280;10332;50.208;18.988;2023-04-07T04:31:39;97893.50;;;3.96;89.42
20350;BME280;10332;50.208;18.988;2023-04-07T04:34:06;97899.06;;;3.87;89.75
20350;BME280;10332;50.208;18.988;2023-04-07T04:36:34;97901.00;;;3.82;90.22
20350;BME280;10332;50.208;18.988;2023-04-07T04:39:04;97895.13;;;3.78;90.53
20350;BME280;10332;50.208;18.988;2023-04-07T04:41:31;97892.19;;;3.86;90.27
20350;BME280;10332;50.208;18.988;2023-04-07T04:43:59;97891.78;;;3.95;89.83
20350;BME280;10332;50.208;18.988;2023-04-07T04:46:26;97899.91;;;3.87;90.57
20350;BME280;10332;50.208;18.988;2023-04-07T04:48:54;97896.94;;;3.95;89.93
20350;BME280;10332;50.208;18.988;2023-04-07T04:51:21;97909.94;;;3.93;90.27
20350;BME280;10332;50.208;18.988;2023-04-07T04:53:49;97907.16;;;3.98;90.04
20350;BME280;10332;50.208;18.988;2023-04-07T04:56:17;97903.66;;;3.99;89.94
20350;BME280;10332;50.208;18.988;2023-04-07T04:58:44;97910.31;;;4.05;89.90
20350;BME280;10332;50.208;18.988;2023-04-07T05:01:15;97901.84;;;4.01;89.85
20350;BME280;10332;50.208;18.988;2023-04-07T05:03:43;97902.59;;;4.03;89.66
20350;BME280;10332;50.208;18.988;2023-04-07T05:06:11;97910.66;;;3.97;89.99
20350;BME280;10332;50.208;18.988;2023-04-07T05:08:38;97907.28;;;3.95;90.10
20350;BME280;10332;50.208;18.988;2023-04-07T05:11:06;97903.84;;;3.94;90.31
20350;BME280;10332;50.208;18.988;2023-04-07T05:13:33;97905.59;;;3.94;90.46
20350;BME280;10332;50.208;18.988;2023-04-07T05:16:00;97902.75;;;4.00;90.32
20350;BME280;10332;50.208;18.988;2023-04-07T05:18:28;97908.34;;;3.91;90.64
20350;BME280;10332;50.208;18.988;2023-04-07T05:20:55;97909.94;;;3.93;90.54
20350;BME280;10332;50.208;18.988;2023-04-07T05:23:23;97907.94;;;4.00;90.45
20350;BME280;10332;50.208;18.988;2023-04-07T05:25:50;97904.16;;;4.07;90.26
20350;BME280;10332;50.208;18.988;2023-04-07T05:28:18;97906.44;;;4.13;90.08
20350;BME280;10332;50.208;18.988;2023-04-07T05:30:47;97898.59;;;4.16;89.70
20350;BME280;10332;50.208;18.988;2023-04-07T05:33:14;97897.94;;;4.11;89.50
20350;BME280;10332;50.208;18.988;2023-04-07T05:35:45;97896.28;;;4.10;89.82
20350;BME280;10332;50.208;18.988;2023-04-07T05:38:13;97896.75;;;4.18;89.30
20350;BME280;10332;50.208;18.988;2023-04-07T05:40:41;97904.66;;;4.15;89.16
20350;BME280;10332;50.208;18.988;2023-04-07T05:43:08;97907.09;;;4.18;88.91
20350;BME280;10332;50.208;18.988;2023-04-07T05:45:35;97909.81;;;4.15;89.17
20350;BME280;10332;50.208;18.988;2023-04-07T05:48:03;97915.41;;;4.06;89.88
20350;BME280;10332;50.208;18.988;2023-04-07T05:50:31;97905.25;;;4.02;89.69
20350;BME280;10332;50.208;18.988;2023-04-07T05:52:58;97916.75;;;4.15;89.22
20350;BME280;10332;50.208;18.988;2023-04-07T05:55:25;97915.81;;;4.16;89.30
20350;BME280;10332;50.208;18.988;2023-04-07T05:57:53;97917.78;;;4.11;89.41
20350;BME280;10332;50.208;18.988;2023-04-07T06:00:21;97917.66;;;4.14;89.06
20350;BME280;10332;50.208;18.988;2023-04-07T06:02:48;97922.41;;;4.23;88.96
20350;BME280;10332;50.208;18.988;2023-04-07T06:05:16;97924.00;;;4.25;88.65
20350;BME280;10332;50.208;18.988;2023-04-07T06:07:44;97924.06;;;4.24;88.76
20350;BME280;10332;50.208;18.988;2023-04-07T06:10:11;97927.34;;;4.27;88.72
20350;BME280;10332;50.208;18.988;2023-04-07T06:12:39;97915.69;;;4.38;88.14
20350;BME280;10332;50.208;18.988;2023-04-07T06:15:07;97906.06;;;4.41;88.19
20350;BME280;10332;50.208;18.988;2023-04-07T06:17:34;97901.72;;;4.42;88.29
20350;BME280;10332;50.208;18.988;2023-04-07T06:20:02;97902.25;;;4.48;87.82
20350;BME280;10332;50.208;18.988;2023-04-07T06:22:30;97898.94;;;4.64;87.01
20350;BME280;10332;50.208;18.988;2023-04-07T06:24:57;97902.22;;;4.67;86.89
20350;BME280;10332;50.208;18.988;2023-04-07T06:27:24;97892.97;;;4.80;86.27
20350;BME280;10332;50.208;18.988;2023-04-07T06:29:52;97902.56;;;4.78;86.25
20350;BME280;10332;50.208;18.988;2023-04-07T06:32:19;97897.72;;;4.90;86.18
20350;BME280;10332;50.208;18.988;2023-04-07T06:34:47;97896.63;;;4.94;85.94
20350;BME280;10332;50.208;18.988;2023-04-07T06:37:14;97898.66;;;5.06;85.50
20350;BME280;10332;50.208;18.988;2023-04-07T06:39:43;97909.59;;;5.11;85.38
20350;BME280;10332;50.208;18.988;2023-04-07T06:42:11;97899.41;;;5.08;85.39
20350;BME280;10332;50.208;18.988;2023-04-07T06:44:39;97908.91;;;5.25;85.17
20350;BME280;10332;50.208;18.988;2023-04-07T06:47:06;97903.00;;;5.23;84.90
20350;BME280;10332;50.208;18.988;2023-04-07T06:49:35;97909.47;;;5.31;84.62
20350;BME280;10332;50.208;18.988;2023-04-07T06:52:05;97915.69;;;5.27;84.54
20350;BME280;10332;50.208;18.988;2023-04-07T06:54:32;97916.44;;;5.29;84.62
20350;BME280;10332;50.208;18.988;2023-04-07T06:57:00;97921.47;;;5.32;84.21
20350;BME280;10332;50.208;18.988;2023-04-07T06:59:27;97915.75;;;5.43;83.74
20350;BME280;10332;50.208;18.988;2023-04-07T07:01:55;97916.59;;;5.44;83.49
20350;BME280;10332;50.208;18.988;2023-04-07T07:04:23;97921.78;;;5.44;83.18
20350;BME280;10332;50.208;18.988;2023-04-07T07:06:50;97920.84;;;5.45;83.16
20350;BME280;10332;50.208;18.988;2023-04-07T07:09:18;97919.72;;;5.50;83.24
20350;BME280;10332;50.208;18.988;2023-04-07T07:11:45;97923.53;;;5.43;83.73
20350;BME280;10332;50.208;18.988;2023-04-07T07:14:13;97917.59;;;5.41;83.56
20350;BME280;10332;50.208;18.988;2023-04-07T07:16:41;97918.88;;;5.50;83.21
20350;BME280;10332;50.208;18.988;2023-04-07T07:19:09;97926.19;;;5.59;82.95
20350;BME280;10332;50.208;18.988;2023-04-07T07:21:36;97926.41;;;5.54;83.10
20350;BME280;10332;50.208;18.988;2023-04-07T07:24:04;97920.22;;;5.57;82.76
20350;BME280;10332;50.208;18.988;2023-04-07T07:26:31;97919.84;;;5.47;83.07
20350;BME280;10332;50.208;18.988;2023-04-07T07:28:59;97922.53;;;5.46;83.23
20350;BME280;10332;50.208;18.988;2023-04-07T07:31:26;97925.50;;;5.38;83.51
20350;BME280;10332;50.208;18.988;2023-04-07T07:33:54;97928.41;;;5.32;83.38
20350;BME280;10332;50.208;18.988;2023-04-07T07:36:22;97928.78;;;5.24;83.38
20350;BME280;10332;50.208;18.988;2023-04-07T07:38:50;97927.94;;;5.24;83.43
20350;BME280;10332;50.208;18.988;2023-04-07T07:41:23;97928.72;;;5.26;83.68
20350;BME280;10332;50.208;18.988;2023-04-07T07:43:52;97933.03;;;5.43;83.66
20350;BME280;10332;50.208;18.988;2023-04-07T07:46:20;97937.75;;;5.52;83.46
20350;BME280;10332;50.208;18.988;2023-04-07T07:48:47;97943.63;;;5.55;83.13
20350;BME280;10332;50.208;18.988;2023-04-07T07:51:14;97946.75;;;5.62;82.91
20350;BME280;10332;50.208;18.988;2023-04-07T07:53:43;97948.25;;;5.66;82.69
20350;BME280;10332;50.208;18.988;2023-04-07T07:56:11;97946.34;;;5.69;82.55
20350;BME280;10332;50.208;18.988;2023-04-07T07:58:38;97944.53;;;5.72;82.60
20350;BME280;10332;50.208;18.988;2023-04-07T08:01:06;97950.41;;;5.75;82.54
20350;BME280;10332;50.208;18.988;2023-04-07T08:03:34;97956.09;;;5.82;82.00
20350;BME280;10332;50.208;18.988;2023-04-07T08:06:01;97951.72;;;5.82;81.92
20350;BME280;10332;50.208;18.988;2023-04-07T08:08:29;97933.50;;;5.68;83.25
20350;BME280;10332;50.208;18.988;2023-04-07T08:10:56;97922.03;;;5.72;82.94
20350;BME280;10332;50.208;18.988;2023-04-07T08:13:24;97916.94;;;5.70;82.68
20350;BME280;10332;50.208;18.988;2023-04-07T08:15:52;97905.00;;;5.68;82.51
20350;BME280;10332;50.208;18.988;2023-04-07T08:18:20;97895.13;;;5.59;83.14
20350;BME280;10332;50.208;18.988;2023-04-07T08:20:48;97896.16;;;5.72;83.28
20350;BME280;10332;50.208;18.988;2023-04-07T08:23:15;97920.81;;;5.79;82.67
20350;BME280;10332;50.208;18.988;2023-04-07T08:25:43;97932.72;;;5.66;83.37
20350;BME280;10332;50.208;18.988;2023-04-07T08:28:10;97922.13;;;5.70;83.26
20350;BME280;10332;50.208;18.988;2023-04-07T08:30:38;97928.19;;;5.87;82.77
20350;BME280;10332;50.208;18.988;2023-04-07T08:33:05;97933.94;;;5.93;82.86
20350;BME280;10332;50.208;18.988;2023-04-07T08:35:33;97935.44;;;5.97;82.57
20350;BME280;10332;50.208;18.988;2023-04-07T08:38:00;97933.59;;;6.00;82.73
20350;BME280;10332;50.208;18.988;2023-04-07T08:40:29;97933.88;;;6.11;82.39
20350;BME280;10332;50.208;18.988;2023-04-07T08:43:02;97929.47;;;6.13;82.42
20350;BME280;10332;50.208;18.988;2023-04-07T08:45:39;97929.91;;;6.21;82.18
20350;BME280;10332;50.208;18.988;2023-04-07T08:48:16;97939.81;;;6.13;82.38
20350;BME280;10332;50.208;18.988;2023-04-07T08:50:45;97934.66;;;6.13;82.15
20350;BME280;10332;50.208;18.988;2023-04-07T08:53:18;97938.31;;;6.09;82.36
20350;BME280;10332;50.208;18.988;2023-04-07T08:55:47;97927.44;;;6.18;82.10
20350;BME280;10332;50.208;18.988;2023-04-07T08:58:15;97934.59;;;6.30;82.06
20350;BME280;10332;50.208;18.988;2023-04-07T09:00:43;97929.06;;;6.20;82.33
20350;BME280;10332;50.208;18.988;2023-04-07T09:03:12;97931.22;;;6.28;81.98
20350;BME280;10332;50.208;18.988;2023-04-07T09:05:43;97931.75;;;6.35;81.33
20350;BME280;10332;50.208;18.988;2023-04-07T09:08:11;97925.34;;;6.09;82.33
20350;BME280;10332;50.208;18.988;2023-04-07T09:10:39;97922.75;;;6.09;82.46
20350;BME280;10332;50.208;18.988;2023-04-07T09:13:07;97919.59;;;6.04;82.61
20350;BME280;10332;50.208;18.988;2023-04-07T09:15:34;97926.63;;;5.84;83.06
20350;BME280;10332;50.208;18.988;2023-04-07T09:18:05;97919.91;;;5.80;83.19
20350;BME280;10332;50.208;18.988;2023-04-07T09:21:02;97917.16;;;5.66;83.65
20350;BME280;10332;50.208;18.988;2023-04-07T09:23:35;97908.50;;;5.67;83.61
20350;BME280;10332;50.208;18.988;2023-04-07T09:26:26;97908.06;;;5.59;84.50
20350;BME280;10332;50.208;18.988;2023-04-07T09:28:59;97899.50;;;5.57;84.95
20350;BME280;10332;50.208;18.988;2023-04-07T09:31:47;97904.19;;;5.50;84.85
20350;BME280;10332;50.208;18.988;2023-04-07T09:34:37;97920.03;;;5.44;85.08
20350;BME280;10332;50.208;18.988;2023-04-07T09:37:07;97915.50;;;5.48;85.48
20350;BME280;10332;50.208;18.988;2023-04-07T09:39:52;97912.53;;;5.55;85.15
20350;BME280;10332;50.208;18.988;2023-04-07T09:42:22;97923.72;;;5.56;85.59
20350;BME280;10332;50.208;18.988;2023-04-07T09:44:50;97928.63;;;5.62;85.52
20350;BME280;10332;50.208;18.988;2023-04-07T09:47:25;97921.75;;;5.61;85.72
20350;BME280;10332;50.208;18.988;2023-04-07T09:49:55;97914.28;;;5.72;85.33
20350;BME280;10332;50.208;18.988;2023-04-07T09:52:48;97910.84;;;5.72;84.74
20350;BME280;10332;50.208;18.988;2023-04-07T09:55:22;97905.44;;;5.76;84.55
20350;BME280;10332;50.208;18.988;2023-04-07T09:57:50;97904.19;;;5.83;84.74
20350;BME280;10332;50.208;18.988;2023-04-07T10:00:18;97913.78;;;5.98;84.51
20350;BME280;10332;50.208;18.988;2023-04-07T10:02:46;97916.22;;;6.02;84.21
20350;BME280;10332;50.208;18.988;2023-04-07T10:05:14;97913.97;;;5.95;84.37
20350;BME280;10332;50.208;18.988;2023-04-07T10:07:42;97914.72;;;5.97;84.21
20350;BME280;10332;50.208;18.988;2023-04-07T10:10:10;97917.00;;;6.04;84.09
20350;BME280;10332;50.208;18.988;2023-04-07T10:12:38;97918.53;;;5.90;84.87
20350;BME280;10332;50.208;18.988;2023-04-07T10:15:11;97918.88;;;6.00;85.33
20350;BME280;10332;50.208;18.988;2023-04-07T10:17:42;97913.44;;;6.22;84.63
20350;BME280;10332;50.208;18.988;2023-04-07T10:20:17;97921.28;;;6.36;84.19
20350;BME280;10332;50.208;18.988;2023-04-07T10:22:50;97920.63;;;6.33;83.63
20350;BME280;10332;50.208;18.988;2023-04-07T10:25:22;97925.16;;;6.29;83.49
20350;BME280;10332;50.208;18.988;2023-04-07T10:28:05;97918.88;;;6.33;83.58
20350;BME280;10332;50.208;18.988;2023-04-07T10:30:35;97917.44;;;6.28;83.61
20350;BME280;10332;50.208;18.988;2023-04-07T10:33:03;97914.50;;;6.18;83.70
20350;BME280;10332;50.208;18.988;2023-04-07T10:36:04;97912.88;;;6.00;84.18
20350;BME280;10332;50.208;18.988;2023-04-07T10:38:32;97923.34;;;6.14;84.01
20350;BME280;10332;50.208;18.988;2023-04-07T10:41:35;97924.75;;;6.04;84.46
20350;BME280;10332;50.208;18.988;2023-04-07T10:44:05;97919.09;;;6.13;84.22
20350;BME280;10332;50.208;18.988;2023-04-07T10:49:17;97927.06;;;5.92;84.97
20350;BME280;10332;50.208;18.988;2023-04-07T10:54:40;97920.34;;;5.88;85.45
20350;BME280;10332;50.208;18.988;2023-04-07T10:57:15;97915.72;;;5.95;85.55
20350;BME280;10332;50.208;18.988;2023-04-07T11:02:39;97921.25;;;5.87;85.70
20350;BME280;10332;50.208;18.988;2023-04-07T11:05:07;97918.25;;;5.62;86.58
20350;BME280;10332;50.208;18.988;2023-04-07T11:07:47;97915.06;;;5.57;87.56
20350;BME280;10332;50.208;18.988;2023-04-07T11:10:16;97908.63;;;5.48;88.56
20350;BME280;10332;50.208;18.988;2023-04-07T11:13:06;97902.28;;;5.36;89.14
20350;BME280;10332;50.208;18.988;2023-04-07T11:15:36;97915.00;;;5.41;88.74
20350;BME280;10332;50.208;18.988;2023-04-07T11:23:17;97909.72;;;5.77;88.99
20350;BME280;10332;50.208;18.988;2023-04-07T11:25:47;97899.34;;;5.94;87.22
20350;BME280;10332;50.208;18.988;2023-04-07T11:28:15;97896.34;;;6.02;87.24
20350;BME280;10332;50.208;18.988;2023-04-07T11:30:51;97898.25;;;5.98;87.24
20350;BME280;10332;50.208;18.988;2023-04-07T11:33:30;97893.00;;;6.16;87.14
20350;BME280;10332;50.208;18.988;2023-04-07T11:36:01;97903.22;;;6.35;86.27
20350;BME280;10332;50.208;18.988;2023-04-07T11:38:36;97903.22;;;6.50;85.59
20350;BME280;10332;50.208;18.988;2023-04-07T11:41:13;97895.25;;;6.38;85.95
20350;BME280;10332;50.208;18.988;2023-04-07T11:43:41;97900.31;;;6.41;85.91
20350;BME280;10332;50.208;18.988;2023-04-07T11:46:15;97902.47;;;6.48;85.97
20350;BME280;10332;50.208;18.988;2023-04-07T11:48:44;97906.88;;;6.46;86.14
20350;BME280;10332;50.208;18.988;2023-04-07T11:51:18;97888.59;;;6.49;85.81
20350;BME280;10332;50.208;18.988;2023-04-07T11:53:46;97896.19;;;6.52;85.55
20350;BME280;10332;50.208;18.988;2023-04-07T11:56:16;97892.44;;;6.58;85.17
20350;BME280;10332;50.208;18.988;2023-04-07T11:58:50;97891.03;;;6.21;85.98
20350;BME280;10332;50.208;18.988;2023-04-07T12:01:19;97898.03;;;6.35;85.98
20350;BME280;10332;50.208;18.988;2023-04-07T12:04:02;97899.97;;;6.31;86.83
20350;BME280;10332;50.208;18.988;2023-04-07T12:06:35;97900.88;;;6.14;86.98
20350;BME280;10332;50.208;18.988;2023-04-07T12:09:05;97891.84;;;6.21;86.93
20350;BME280;10332;50.208;18.988;2023-04-07T12:11:34;97895.03;;;6.26;86.47
20350;BME280;10332;50.208;18.988;2023-04-07T12:14:03;97892.16;;;6.00;87.28
20350;BME280;10332;50.208;18.988;2023-04-07T12:16:31;97895.16;;;5.75;88.23
20350;BME280;10332;50.208;18.988;2023-04-07T12:19:04;97898.44;;;5.78;88.48
20350;BME280;10332;50.208;18.988;2023-04-07T12:21:31;97902.28;;;5.87;88.20
20350;BME280;10332;50.208;18.988;2023-04-07T12:23:58;97909.53;;;5.97;87.59
20350;BME280;10332;50.208;18.988;2023-04-07T12:26:26;97895.22;;;5.90;87.39
20350;BME280;10332;50.208;18.988;2023-04-07T12:28:54;97900.84;;;5.81;88.16
20350;BME280;10332;50.208;18.988;2023-04-07T12:31:22;97899.84;;;5.84;87.89
20350;BME280;10332;50.208;18.988;2023-04-07T12:33:50;97899.53;;;5.90;87.99
20350;BME280;10332;50.208;18.988;2023-04-07T12:36:17;97900.84;;;5.98;87.63
20350;BME280;10332;50.208;18.988;2023-04-07T12:38:45;97909.31;;;6.02;87.74
20350;BME280;10332;50.208;18.988;2023-04-07T12:41:13;97900.69;;;6.17;87.13
20350;BME280;10332;50.208;18.988;2023-04-07T12:43:40;97902.13;;;6.23;87.06
20350;BME280;10332;50.208;18.988;2023-04-07T12:46:08;97902.03;;;6.24;86.94
20350;BME280;10332;50.208;18.988;2023-04-07T12:48:36;97905.47;;;6.25;86.97
20350;BME280;10332;50.208;18.988;2023-04-07T12:51:03;97902.66;;;6.30;87.12
20350;BME280;10332;50.208;18.988;2023-04-07T12:53:31;97897.19;;;6.34;86.95
20350;BME280;10332;50.208;18.988;2023-04-07T12:55:58;97903.91;;;6.38;86.82
20350;BME280;10332;50.208;18.988;2023-04-07T12:58:26;97905.91;;;6.33;87.38
20350;BME280;10332;50.208;18.988;2023-04-07T13:00:54;97897.88;;;6.22;88.00
20350;BME280;10332;50.208;18.988;2023-04-07T13:03:23;97896.84;;;6.09;88.43
20350;BME280;10332;50.208;18.988;2023-04-07T13:05:51;97896.88;;;6.24;87.87
20350;BME280;10332;50.208;18.988;2023-04-07T13:08:21;97905.81;;;6.35;87.60
20350;BME280;10332;50.208;18.988;2023-04-07T13:10:48;97899.38;;;6.26;87.69
20350;BME280;10332;50.208;18.988;2023-04-07T13:13:16;97897.78;;;6.23;87.57
20350;BME280;10332;50.208;18.988;2023-04-07T13:15:43;97897.97;;;6.20;87.53
20350;BME280;10332;50.208;18.988;2023-04-07T13:18:11;97898.03;;;6.03;88.38
20350;BME280;10332;50.208;18.988;2023-04-07T13:20:38;97893.66;;;6.04;88.59
20350;BME280;10332;50.208;18.988;2023-04-07T13:23:06;97896.84;;;6.09;88.78
20350;BME280;10332;50.208;18.988;2023-04-07T13:25:36;97900.59;;;6.19;88.30
20350;BME280;10332;50.208;18.988;2023-04-07T13:28:04;97903.38;;;6.16;88.96
20350;BME280;10332;50.208;18.988;2023-04-07T13:30:32;97907.63;;;6.17;89.36
20350;BME280;10332;50.208;18.988;2023-04-07T13:32:59;97906.13;;;6.29;88.88
20350;BME280;10332;50.208;18.988;2023-04-07T13:35:27;97916.09;;;6.36;88.67
20350;BME280;10332;50.208;18.988;2023-04-07T13:37:58;97905.38;;;6.26;89.44
20350;BME280;10332;50.208;18.988;2023-04-07T13:40:26;97911.91;;;6.34;88.77
20350;BME280;10332;50.208;18.988;2023-04-07T13:42:53;97916.28;;;6.33;88.49